sensor_id;sensor_type;location;lat;lon;timestamp;P1;durP1;ratioP1;P2;durP2;ratioP2
21517;SDS011;61765;45.794;24.150;2023-02-22T00:04:36;4.88;;;2.50;;
21517;SDS011;61765;45.794;24.150;2023-02-22T00:12:45;5.00;;;3.25;;
21517;SDS011;61765;45.794;24.150;2023-02-22T00:20:51;4.95;;;2.80;;
21517;SDS011;61765;45.794;24.150;2023-02-22T00:29:03;3.25;;;2.17;;
21517;SDS011;61765;45.794;24.150;2023-02-22T00:37:09;5.05;;;2.42;;
21517;SDS011;61765;45.794;24.150;2023-02-22T00:45:18;2.95;;;2.30;;
21517;SDS011;61765;45.794;24.150;2023-02-22T00:53:26;3.72;;;2.30;;
21517;SDS011;61765;45.794;24.150;2023-02-22T01:01:34;3.50;;;2.72;;
21517;SDS011;61765;45.794;24.150;2023-02-22T01:45:58;5.22;;;3.00;;
21517;SDS011;61765;45.794;24.150;2023-02-22T02:31:08;4.13;;;2.63;;
21517;SDS011;61765;45.794;24.150;2023-02-22T02:39:45;3.50;;;2.80;;
21517;SDS011;61765;45.794;24.150;2023-02-22T02:47:56;4.15;;;3.33;;
21517;SDS011;61765;45.794;24.150;2023-02-22T02:56:07;3.97;;;2.88;;
21517;SDS011;61765;45.794;24.150;2023-02-22T03:12:47;3.63;;;3.22;;
21517;SDS011;61765;45.794;24.150;2023-02-22T03:21:00;12.95;;;7.50;;
21517;SDS011;61765;45.794;24.150;2023-02-22T03:29:19;13.82;;;6.78;;
21517;SDS011;61765;45.794;24.150;2023-02-22T03:37:26;9.82;;;5.55;;
21517;SDS011;61765;45.794;24.150;2023-02-22T03:45:37;7.07;;;5.05;;
21517;SDS011;61765;45.794;24.150;2023-02-22T03:53:45;7.25;;;4.80;;
21517;SDS011;61765;45.794;24.150;2023-02-22T04:01:58;7.20;;;4.45;;
21517;SDS011;61765;45.794;24.150;2023-02-22T04:10:04;8.18;;;4.15;;
21517;SDS011;61765;45.794;24.150;2023-02-22T04:18:14;7.35;;;4.90;;
21517;SDS011;61765;45.794;24.150;2023-02-22T04:26:21;6.28;;;4.15;;
21517;SDS011;61765;45.794;24.150;2023-02-22T04:34:32;6.35;;;4.47;;
21517;SDS011;61765;45.794;24.150;2023-02-22T04:42:38;7.63;;;4.68;;
21517;SDS011;61765;45.794;24.150;2023-02-22T04:50:47;7.20;;;5.15;;
21517;SDS011;61765;45.794;24.150;2023-02-22T04:58:53;5.93;;;4.65;;
21517;SDS011;61765;45.794;24.150;2023-02-22T05:07:01;8.52;;;5.50;;
21517;SDS011;61765;45.794;24.150;2023-02-22T05:15:07;10.10;;;5.18;;
21517;SDS011;61765;45.794;24.150;2023-02-22T05:23:16;8.43;;;5.30;;
21517;SDS011;61765;45.794;24.150;2023-02-22T05:31:21;9.52;;;6.30;;
21517;SDS011;61765;45.794;24.150;2023-02-22T05:39:29;8.00;;;5.82;;
21517;SDS011;61765;45.794;24.150;2023-02-22T05:47:35;11.40;;;6.38;;
21517;SDS011;61765;45.794;24.150;2023-02-22T05:55:43;9.40;;;6.38;;
21517;SDS011;61765;45.794;24.150;2023-02-22T06:03:49;10.57;;;6.55;;
21517;SDS011;61765;45.794;24.150;2023-02-22T06:11:57;9.88;;;7.10;;
21517;SDS011;61765;45.794;24.150;2023-02-22T06:20:03;9.73;;;6.75;;
21517;SDS011;61765;45.794;24.150;2023-02-22T06:28:11;17.00;;;8.20;;
21517;SDS011;61765;45.794;24.150;2023-02-22T06:36:17;11.73;;;6.80;;
21517;SDS011;61765;45.794;24.150;2023-02-22T06:44:25;10.05;;;6.30;;
21517;SDS011;61765;45.794;24.150;2023-02-22T06:52:31;8.45;;;6.47;;
21517;SDS011;61765;45.794;24.150;2023-02-22T07:00:39;9.93;;;6.05;;
21517;SDS011;61765;45.794;24.150;2023-02-22T07:08:44;12.38;;;7.55;;
21517;SDS011;61765;45.794;24.150;2023-02-22T07:16:53;10.95;;;6.35;;
21517;SDS011;61765;45.794;24.150;2023-02-22T07:24:58;13.18;;;7.68;;
21517;SDS011;61765;45.794;24.150;2023-02-22T07:33:07;17.98;;;10.32;;
21517;SDS011;61765;45.794;24.150;2023-02-22T07:41:14;19.95;;;12.75;;
21517;SDS011;61765;45.794;24.150;2023-02-22T07:49:22;15.75;;;8.23;;
21517;SDS011;61765;45.794;24.150;2023-02-22T07:57:27;11.10;;;5.50;;
21517;SDS011;61765;45.794;24.150;2023-02-22T08:05:36;8.70;;;6.18;;
21517;SDS011;61765;45.794;24.150;2023-02-22T08:13:43;8.05;;;5.40;;
21517;SDS011;61765;45.794;24.150;2023-02-22T08:21:54;7.47;;;5.40;;
21517;SDS011;61765;45.794;24.150;2023-02-22T08:29:59;9.25;;;6.55;;
21517;SDS011;61765;45.794;24.150;2023-02-22T08:38:14;11.73;;;6.40;;
21517;SDS011;61765;45.794;24.150;2023-02-22T08:46:21;7.45;;;5.95;;
21517;SDS011;61765;45.794;24.150;2023-02-22T08:54:29;12.88;;;7.25;;
21517;SDS011;61765;45.794;24.150;2023-02-22T09:02:34;11.88;;;6.35;;
21517;SDS011;61765;45.794;24.150;2023-02-22T09:10:42;12.60;;;7.22;;
21517;SDS011;61765;45.794;24.150;2023-02-22T09:18:48;9.02;;;5.68;;
21517;SDS011;61765;45.794;24.150;2023-02-22T09:26:56;7.82;;;5.38;;
21517;SDS011;61765;45.794;24.150;2023-02-22T09:35:06;8.73;;;5.47;;
21517;SDS011;61765;45.794;24.150;2023-02-22T09:51:39;9.43;;;6.03;;
21517;SDS011;61765;45.794;24.150;2023-02-22T09:59:55;10.50;;;6.60;;
21517;SDS011;61765;45.794;24.150;2023-02-22T10:08:16;7.78;;;5.65;;
21517;SDS011;61765;45.794;24.150;2023-02-22T10:16:26;6.60;;;5.45;;
21517;SDS011;61765;45.794;24.150;2023-02-22T10:24:41;7.60;;;5.32;;
21517;SDS011;61765;45.794;24.150;2023-02-22T10:33:00;7.70;;;5.78;;
21517;SDS011;61765;45.794;24.150;2023-02-22T10:41:14;8.70;;;5.60;;
21517;SDS011;61765;45.794;24.150;2023-02-22T10:49:31;8.65;;;5.15;;
21517;SDS011;61765;45.794;24.150;2023-02-22T10:57:40;10.18;;;5.10;;
21517;SDS011;61765;45.794;24.150;2023-02-22T11:05:50;7.93;;;5.40;;
21517;SDS011;61765;45.794;24.150;2023-02-22T11:13:56;10.38;;;5.70;;
21517;SDS011;61765;45.794;24.150;2023-02-22T11:22:10;9.32;;;6.00;;
21517;SDS011;61765;45.794;24.150;2023-02-22T11:30:20;12.00;;;7.07;;
21517;SDS011;61765;45.794;24.150;2023-02-22T11:38:34;10.68;;;5.88;;
21517;SDS011;61765;45.794;24.150;2023-02-22T11:46:40;11.07;;;6.25;;
21517;SDS011;61765;45.794;24.150;2023-02-22T11:54:55;8.43;;;5.13;;
21517;SDS011;61765;45.794;24.150;2023-02-22T12:03:48;8.10;;;5.32;;
21517;SDS011;61765;45.794;24.150;2023-02-22T12:12:20;11.57;;;5.28;;
21517;SDS011;61765;45.794;24.150;2023-02-22T12:20:35;7.43;;;5.22;;
21517;SDS011;61765;45.794;24.150;2023-02-22T12:28:47;9.57;;;5.43;;
21517;SDS011;61765;45.794;24.150;2023-02-22T12:37:02;6.93;;;5.00;;
21517;SDS011;61765;45.794;24.150;2023-02-22T12:45:19;8.68;;;5.53;;
21517;SDS011;61765;45.794;24.150;2023-02-22T12:53:33;7.70;;;4.97;;
21517;SDS011;61765;45.794;24.150;2023-02-22T13:01:43;8.48;;;5.28;;
21517;SDS011;61765;45.794;24.150;2023-02-22T13:18:30;7.83;;;5.17;;
21517;SDS011;61765;45.794;24.150;2023-02-22T13:26:41;7.55;;;5.10;;
21517;SDS011;61765;45.794;24.150;2023-02-22T13:35:04;6.60;;;5.10;;
21517;SDS011;61765;45.794;24.150;2023-02-22T13:52:05;9.50;;;6.15;;
21517;SDS011;61765;45.794;24.150;2023-02-22T14:00:20;8.02;;;5.53;;
21517;SDS011;61765;45.794;24.150;2023-02-22T14:08:45;7.32;;;4.95;;
21517;SDS011;61765;45.794;24.150;2023-02-22T14:25:35;9.25;;;6.53;;
21517;SDS011;61765;45.794;24.150;2023-02-22T14:33:53;9.75;;;6.32;;
21517;SDS011;61765;45.794;24.150;2023-02-22T14:42:04;9.27;;;5.97;;
21517;SDS011;61765;45.794;24.150;2023-02-22T14:50:13;10.25;;;6.22;;
21517;SDS011;61765;45.794;24.150;2023-02-22T14:58:28;7.53;;;5.20;;
21517;SDS011;61765;45.794;24.150;2023-02-22T15:06:37;11.40;;;6.72;;
21517;SDS011;61765;45.794;24.150;2023-02-22T15:14:45;8.27;;;5.57;;
21517;SDS011;61765;45.794;24.150;2023-02-22T15:22:56;12.35;;;6.45;;
21517;SDS011;61765;45.794;24.150;2023-02-22T15:31:15;9.80;;;6.68;;
21517;SDS011;61765;45.794;24.150;2023-02-22T15:39:28;9.43;;;6.32;;
21517;SDS011;61765;45.794;24.150;2023-02-22T15:47:37;12.18;;;7.80;;
21517;SDS011;61765;45.794;24.150;2023-02-22T15:55:43;13.95;;;7.90;;
21517;SDS011;61765;45.794;24.150;2023-02-22T16:03:53;15.73;;;8.30;;
21517;SDS011;61765;45.794;24.150;2023-02-22T16:12:08;14.85;;;9.95;;
21517;SDS011;61765;45.794;24.150;2023-02-22T16:20:32;15.70;;;9.63;;
21517;SDS011;61765;45.794;24.150;2023-02-22T16:28:45;22.33;;;11.52;;
21517;SDS011;61765;45.794;24.150;2023-02-22T16:36:55;22.55;;;14.32;;
21517;SDS011;61765;45.794;24.150;2023-02-22T16:45:02;31.50;;;17.83;;
21517;SDS011;61765;45.794;24.150;2023-02-22T16:53:10;42.88;;;24.63;;
21517;SDS011;61765;45.794;24.150;2023-02-22T17:01:16;47.17;;;27.05;;
21517;SDS011;61765;45.794;24.150;2023-02-22T17:09:26;35.88;;;20.38;;
21517;SDS011;61765;45.794;24.150;2023-02-22T17:17:32;40.53;;;21.20;;
21517;SDS011;61765;45.794;24.150;2023-02-22T17:25:40;39.80;;;22.48;;
21517;SDS011;61765;45.794;24.150;2023-02-22T17:33:47;42.95;;;22.60;;
21517;SDS011;61765;45.794;24.150;2023-02-22T17:41:56;42.00;;;19.15;;
21517;SDS011;61765;45.794;24.150;2023-02-22T17:50:02;27.42;;;14.98;;
21517;SDS011;61765;45.794;24.150;2023-02-22T17:58:10;27.42;;;14.50;;
21517;SDS011;61765;45.794;24.150;2023-02-22T18:06:18;28.15;;;15.57;;
21517;SDS011;61765;45.794;24.150;2023-02-22T18:14:30;26.05;;;14.45;;
21517;SDS011;61765;45.794;24.150;2023-02-22T18:22:36;27.25;;;17.08;;
21517;SDS011;61765;45.794;24.150;2023-02-22T18:30:46;20.58;;;12.73;;
21517;SDS011;61765;45.794;24.150;2023-02-22T18:38:55;21.27;;;13.20;;
21517;SDS011;61765;45.794;24.150;2023-02-22T18:47:04;27.73;;;15.95;;
21517;SDS011;61765;45.794;24.150;2023-02-22T18:55:10;31.58;;;18.30;;
21517;SDS011;61765;45.794;24.150;2023-02-22T19:03:20;37.58;;;22.02;;
21517;SDS011;61765;45.794;24.150;2023-02-22T19:11:26;40.97;;;22.23;;
21517;SDS011;61765;45.794;24.150;2023-02-22T19:19:35;38.08;;;22.50;;
21517;SDS011;61765;45.794;24.150;2023-02-22T19:27:40;36.10;;;19.23;;
21517;SDS011;61765;45.794;24.150;2023-02-22T19:35:48;31.55;;;17.52;;
21517;SDS011;61765;45.794;24.150;2023-02-22T19:43:54;41.65;;;22.65;;
21517;SDS011;61765;45.794;24.150;2023-02-22T19:52:02;33.40;;;20.42;;
21517;SDS011;61765;45.794;24.150;2023-02-22T20:00:09;32.63;;;18.38;;
21517;SDS011;61765;45.794;24.150;2023-02-22T20:08:27;28.55;;;17.38;;
21517;SDS011;61765;45.794;24.150;2023-02-22T20:16:33;32.95;;;20.85;;
21517;SDS011;61765;45.794;24.150;2023-02-22T20:24:41;34.15;;;20.20;;
21517;SDS011;61765;45.794;24.150;2023-02-22T20:32:48;36.15;;;21.50;;
21517;SDS011;61765;45.794;24.150;2023-02-22T20:40:56;37.10;;;21.00;;
21517;SDS011;61765;45.794;24.150;2023-02-22T20:49:03;35.95;;;22.70;;
21517;SDS011;61765;45.794;24.150;2023-02-22T20:57:14;34.90;;;20.80;;
21517;SDS011;61765;45.794;24.150;2023-02-22T21:05:20;37.08;;;21.98;;
21517;SDS011;61765;45.794;24.150;2023-02-22T21:13:29;35.28;;;22.08;;
21517;SDS011;61765;45.794;24.150;2023-02-22T21:21:34;37.63;;;22.60;;
21517;SDS011;61765;45.794;24.150;2023-02-22T21:29:42;40.45;;;22.42;;
21517;SDS011;61765;45.794;24.150;2023-02-22T21:37:48;39.05;;;23.20;;
21517;SDS011;61765;45.794;24.150;2023-02-22T21:45:59;40.88;;;23.85;;
21517;SDS011;61765;45.794;24.150;2023-02-22T21:54:07;43.95;;;26.30;;
21517;SDS011;61765;45.794;24.150;2023-02-22T22:02:17;49.60;;;25.83;;
21517;SDS011;61765;45.794;24.150;2023-02-22T22:10:23;60.80;;;31.85;;
21517;SDS011;61765;45.794;24.150;2023-02-22T22:18:37;75.05;;;37.72;;
21517;SDS011;61765;45.794;24.150;2023-02-22T22:26:45;86.25;;;43.78;;
21517;SDS011;61765;45.794;24.150;2023-02-22T22:34:54;54.58;;;29.35;;
21517;SDS011;61765;45.794;24.150;2023-02-22T22:43:00;47.22;;;25.33;;
21517;SDS011;61765;45.794;24.150;2023-02-22T22:51:09;39.53;;;20.42;;
21517;SDS011;61765;45.794;24.150;2023-02-22T22:59:19;37.72;;;22.40;;
21517;SDS011;61765;45.794;24.150;2023-02-22T23:07:27;42.97;;;23.48;;
21517;SDS011;61765;45.794;24.150;2023-02-22T23:15:33;30.05;;;17.42;;
21517;SDS011;61765;45.794;24.150;2023-02-22T23:23:41;29.58;;;17.40;;
21517;SDS011;61765;45.794;24.150;2023-02-22T23:31:48;46.88;;;25.20;;
21517;SDS011;61765;45.794;24.150;2023-02-22T23:39:57;43.17;;;24.25;;
21517;SDS011;61765;45.794;24.150;2023-02-22T23:48:05;38.70;;;21.73;;
21517;SDS011;61765;45.794;24.150;2023-02-22T23:56:15;35.25;;;20.33;;
